Auto, West Virginia
Current Conditions -  °F | °C
As of 6:55 AM on Friday 24 Oct 2014 (Local Time) from KLWB Reporting Station
Haze Haze  
Wind Chill: 38°   Ceiling: Unl
Heat Index: 38°   Visibility: 4mi
Dew Point: 37°   Wind: 3mph
Humidity: 95%   Direction: 230°SW
Pressure: 30.1"   Gusts: NA
Location:  37.96°N, 80.33°W
Report Text: KLWB 241055Z AUTO 23003KT 4SM BR CLR 04/03 A3010 RMK AO2 T00350028
Loading
Personal Weather Stations






























Interactive Weather Map New forecast layout! Learn more

10-Day Weather Forecast

Advertisements
Track Severe Weather on mobile